CheckWX is a tool to help pilots better visualize weather data.  It is not intended as a substitute for an official pre-flight weather briefing.

06:54:36 UTC

GCRR TAF
Lanzarote Airport
Lanzarote Island, Spain
TAF GCRR 180200Z 1803/1903 32005KT 9999 FEW025 TX26/1814Z TN17/1806Z BECMG 1809/1811 15010KT BECMG 1818/1820 35006KT

Jun-18@
03:00 UTC

Jun-18 @ 03:00 UTC

Jun-18@
09:00 UTC

Jun-18 @ 09:00 UTC

TAF GCRR 180200Z 1803/1903 32005KT 9999 FEW025 TX26/1814Z TN17/1806Z
Wind
  • 320° at 5 KTS
Cloud Levels
  • Few at 2,500' AGL

Jun-18@
09:00 UTC

Jun-18 @ 09:00 UTC

Jun-18@
18:00 UTC

Jun-18 @ 18:00 UTC

BECMG 1809/1811 15010KT

Becoming

Becoming Conditions expected by Tue, Jun 18, 2019 @ 11:00 UTC

Wind
  • 150° at 10 KTS
Cloud Levels
  • Few at 2,500' AGL

Jun-18@
18:00 UTC

Jun-18 @ 18:00 UTC

Jun-19@
03:00 UTC

Jun-19 @ 03:00 UTC

BECMG 1818/1820 35006KT

Becoming

Becoming Conditions expected by Tue, Jun 18, 2019 @ 20:00 UTC

Wind
  • 350° at 6 KTS
Cloud Levels
  • Few at 2,500' AGL